createdAt,value
2019-04-29T00:01:25.820Z,7.78
2019-04-29T00:03:55.112Z,7.73
2019-04-29T00:06:24.488Z,7.71
2019-04-29T00:08:56.032Z,7.69
2019-04-29T00:11:27.254Z,7.67
2019-04-29T00:13:59.357Z,7.64
2019-04-29T00:16:38.171Z,7.63
2019-04-29T00:19:18.336Z,7.61
2019-04-29T00:21:49.049Z,7.60
2019-04-29T00:24:20.530Z,7.60
2019-04-29T00:26:51.664Z,7.59
2019-04-29T00:29:22.178Z,7.55
2019-04-29T00:31:51.614Z,7.51
2019-04-29T00:34:22.201Z,7.48
2019-04-29T00:36:53.225Z,7.46
2019-04-29T00:39:42.458Z,7.45
2019-04-29T00:42:13.608Z,7.43
2019-04-29T00:44:43.331Z,7.36
2019-04-29T00:47:14.385Z,7.36
2019-04-29T00:49:43.769Z,7.35
2019-04-29T00:52:13.491Z,7.32
2019-04-29T00:54:44.807Z,7.29
2019-04-29T00:57:14.731Z,7.23
2019-04-29T00:59:44.397Z,7.16
2019-04-29T01:02:14.030Z,7.12
2019-04-29T01:04:43.412Z,7.10
2019-04-29T01:07:13.441Z,7.10
2019-04-29T01:09:43.474Z,7.08
2019-04-29T01:12:13.538Z,7.06
2019-04-29T01:14:44.460Z,7.04
2019-04-29T01:17:14.158Z,7.04
2019-04-29T01:19:43.903Z,7.02
2019-04-29T01:22:15.213Z,6.98
2019-04-29T01:24:47.139Z,6.94
2019-04-29T01:27:19.746Z,6.82
2019-04-29T01:29:49.420Z,6.82
2019-04-29T01:32:19.910Z,6.82
2019-04-29T01:34:55.646Z,6.78
2019-04-29T01:37:33.820Z,6.77
2019-04-29T01:40:08.096Z,6.72
2019-04-29T01:42:43.130Z,6.67
2019-04-29T01:45:12.495Z,6.63
2019-04-29T01:47:42.283Z,6.61
2019-04-29T01:50:12.634Z,6.60
2019-04-29T01:52:42.644Z,6.59
2019-04-29T01:55:12.313Z,6.53
2019-04-29T01:57:41.931Z,6.51
2019-04-29T02:00:13.127Z,6.50
2019-04-29T02:02:42.894Z,6.53
2019-04-29T02:05:12.551Z,6.55
2019-04-29T02:07:44.796Z,6.54
2019-04-29T02:10:18.887Z,6.50
2019-04-29T02:12:48.395Z,6.46
2019-04-29T02:15:17.917Z,6.42
2019-04-29T02:17:47.601Z,6.41
2019-04-29T02:20:17.032Z,6.43
2019-04-29T02:22:49.854Z,6.43
2019-04-29T02:25:39.344Z,6.40
2019-04-29T02:28:08.750Z,6.41
2019-04-29T02:30:40.948Z,6.41
2019-04-29T02:33:11.941Z,6.41
2019-04-29T02:35:44.658Z,6.38
2019-04-29T02:38:21.443Z,6.35
2019-04-29T02:41:08.512Z,6.31
2019-04-29T02:43:41.014Z,6.26
2019-04-29T02:46:10.927Z,6.24
2019-04-29T02:48:41.041Z,6.23
2019-04-29T02:51:13.205Z,6.24
2019-04-29T02:53:42.809Z,6.23
2019-04-29T02:56:12.460Z,6.19
2019-04-29T02:58:43.497Z,6.17
2019-04-29T03:01:32.822Z,6.15
2019-04-29T03:04:06.681Z,6.14
2019-04-29T03:06:36.334Z,6.13
2019-04-29T03:09:06.963Z,6.11
2019-04-29T03:11:36.722Z,6.08
2019-04-29T03:14:06.109Z,6.06
2019-04-29T03:16:38.495Z,6.05
2019-04-29T03:19:09.724Z,6.06
2019-04-29T03:21:47.678Z,6.08
2019-04-29T03:24:18.598Z,6.06
2019-04-29T03:26:47.967Z,6.05
2019-04-29T03:29:23.499Z,6.04
2019-04-29T03:31:54.129Z,6.03
2019-04-29T03:34:25.340Z,6.03
2019-04-29T03:36:54.688Z,6.03
2019-04-29T03:39:25.326Z,6.01
2019-04-29T03:41:54.700Z,5.99
2019-04-29T03:44:24.677Z,6.00
2019-04-29T03:46:54.292Z,5.99
2019-04-29T03:49:24.514Z,5.98
2019-04-29T03:51:53.862Z,5.93
2019-04-29T03:54:25.009Z,5.90
2019-04-29T03:56:54.720Z,5.85
2019-04-29T03:59:26.190Z,5.81
2019-04-29T04:01:57.583Z,5.78
2019-04-29T04:04:45.503Z,5.76
2019-04-29T04:07:19.048Z,5.73
2019-04-29T04:09:49.612Z,5.69
2019-04-29T04:12:20.932Z,5.66
2019-04-29T04:14:51.955Z,5.67
2019-04-29T04:17:30.311Z,5.70
2019-04-29T04:19:59.823Z,5.73
2019-04-29T04:22:30.825Z,5.78
2019-04-29T04:25:02.114Z,5.85
2019-04-29T04:27:31.747Z,5.90
2019-04-29T04:30:01.159Z,5.92
2019-04-29T04:32:31.093Z,5.94
2019-04-29T04:35:01.006Z,5.98
2019-04-29T04:37:32.141Z,6.01
2019-04-29T04:40:01.769Z,6.01
2019-04-29T04:42:31.126Z,6.02
2019-04-29T04:45:01.348Z,6.06
2019-04-29T04:47:32.078Z,6.12
2019-04-29T04:50:02.143Z,6.17
2019-04-29T04:52:31.767Z,6.19
2019-04-29T04:55:01.185Z,6.24
2019-04-29T04:57:30.810Z,6.29
2019-04-29T05:00:00.231Z,6.32
2019-04-29T05:02:30.014Z,6.36
2019-04-29T05:05:00.067Z,6.40
2019-04-29T05:07:29.753Z,6.44
2019-04-29T05:10:00.914Z,6.46
2019-04-29T05:12:30.806Z,6.48
2019-04-29T05:15:00.223Z,6.48
2019-04-29T05:17:29.966Z,6.48
2019-04-29T05:19:59.368Z,6.49
2019-04-29T05:22:29.245Z,6.49
2019-04-29T05:24:58.896Z,6.50
2019-04-29T05:27:28.359Z,6.53
2019-04-29T05:29:59.133Z,6.56
2019-04-29T05:32:29.350Z,6.59
2019-04-29T05:35:01.334Z,6.64
2019-04-29T05:37:39.388Z,6.68
2019-04-29T05:40:10.150Z,6.76
2019-04-29T05:42:40.469Z,6.85
2019-04-29T05:45:23.502Z,6.90
2019-04-29T05:47:57.051Z,6.97
2019-04-29T05:50:30.080Z,7.04
2019-04-29T05:53:06.837Z,7.07
2019-04-29T05:55:36.294Z,7.07
2019-04-29T05:58:13.386Z,7.22
2019-04-29T06:00:44.886Z,7.32
2019-04-29T06:03:14.140Z,7.43
2019-04-29T06:05:45.219Z,7.50
2019-04-29T06:08:16.986Z,7.57
2019-04-29T06:10:47.218Z,7.67
2019-04-29T06:13:16.888Z,7.80
2019-04-29T06:15:46.257Z,7.91
2019-04-29T06:18:17.699Z,8.00
2019-04-29T06:20:47.041Z,8.00
2019-04-29T06:23:19.052Z,8.05
2019-04-29T06:25:48.071Z,8.10
2019-04-29T06:28:21.629Z,8.10
2019-04-29T06:30:50.161Z,8.22
2019-04-29T06:33:24.322Z,8.32
2019-04-29T06:35:56.934Z,8.37
2019-04-29T06:38:25.100Z,8.46
2019-04-29T06:40:57.070Z,8.55
2019-04-29T06:43:28.872Z,8.61
2019-04-29T06:45:59.054Z,8.71
2019-04-29T06:48:28.420Z,8.71
2019-04-29T06:50:58.533Z,8.80
2019-04-29T06:53:28.006Z,8.80
2019-04-29T06:55:57.424Z,8.87
2019-04-29T06:58:27.686Z,8.98
2019-04-29T07:01:01.171Z,9.05
2019-04-29T07:03:28.697Z,9.09
2019-04-29T07:05:59.143Z,9.17
2019-04-29T07:08:30.595Z,9.28
2019-04-29T07:11:01.184Z,9.39
2019-04-29T07:13:32.422Z,9.49
2019-04-29T07:16:02.145Z,9.61
2019-04-29T07:18:31.506Z,9.67
2019-04-29T07:21:02.343Z,9.74
2019-04-29T07:23:33.031Z,9.83
2019-04-29T07:26:03.499Z,9.90
2019-04-29T07:28:33.394Z,9.92
2019-04-29T07:31:03.335Z,9.92
2019-04-29T07:33:35.392Z,9.98
2019-04-29T07:36:11.297Z,10.16
2019-04-29T07:38:41.558Z,10.32
2019-04-29T07:41:10.079Z,10.42
2019-04-29T07:43:43.056Z,10.49
2019-04-29T07:46:16.430Z,10.60
2019-04-29T07:49:00.758Z,10.73
2019-04-29T07:51:21.521Z,10.86
2019-04-29T07:53:51.552Z,10.99
2019-04-29T07:56:21.296Z,11.12
2019-04-29T07:58:52.127Z,11.24
2019-04-29T08:01:24.517Z,11.38
2019-04-29T08:03:54.028Z,11.51
2019-04-29T08:06:24.023Z,11.53
2019-04-29T08:08:55.180Z,11.58
2019-04-29T08:11:26.306Z,11.60
2019-04-29T08:13:56.657Z,11.66
2019-04-29T08:16:26.179Z,11.74
2019-04-29T08:18:55.662Z,11.81
2019-04-29T08:21:25.341Z,11.92
2019-04-29T08:23:57.533Z,12.03
2019-04-29T08:26:29.383Z,12.20
2019-04-29T08:29:00.822Z,12.33
2019-04-29T08:31:31.730Z,12.51
2019-04-29T08:34:02.482Z,12.66
2019-04-29T08:36:33.992Z,12.82
2019-04-29T08:39:08.720Z,12.82
2019-04-29T08:41:38.365Z,12.84
2019-04-29T08:44:19.400Z,12.88
2019-04-29T08:47:00.413Z,12.95
2019-04-29T08:49:30.079Z,12.97
2019-04-29T08:52:01.102Z,12.97
2019-04-29T08:54:30.480Z,12.97
2019-04-29T08:57:04.230Z,13.04
2019-04-29T08:59:33.594Z,13.08
2019-04-29T09:02:05.168Z,13.14
2019-04-29T09:04:35.473Z,13.18
2019-04-29T09:07:12.415Z,13.18
2019-04-29T09:09:35.930Z,13.16
2019-04-29T09:12:05.549Z,13.12
2019-04-29T09:14:35.466Z,13.08
2019-04-29T09:17:13.615Z,13.03
2019-04-29T09:19:39.259Z,12.94
2019-04-29T09:22:10.829Z,12.93
2019-04-29T09:24:43.594Z,12.86
2019-04-29T09:27:15.225Z,12.78
2019-04-29T09:29:46.623Z,12.72
2019-04-29T09:32:16.588Z,12.71
2019-04-29T09:34:46.214Z,12.77
2019-04-29T09:37:18.605Z,12.77
2019-04-29T09:39:48.536Z,12.79
2019-04-29T09:42:22.209Z,12.82
2019-04-29T09:45:10.235Z,12.86
2019-04-29T09:47:39.630Z,12.86
2019-04-29T09:50:10.816Z,12.91
2019-04-29T09:52:40.737Z,12.91
2019-04-29T09:55:11.069Z,12.95
2019-04-29T09:57:40.836Z,12.98
2019-04-29T10:00:16.593Z,13.00
2019-04-29T10:02:50.292Z,13.00
2019-04-29T10:05:27.582Z,12.98
2019-04-29T10:07:59.562Z,12.92
2019-04-29T10:10:30.441Z,12.84
2019-04-29T10:13:00.073Z,12.81
2019-04-29T10:15:34.137Z,12.77
2019-04-29T10:18:11.072Z,12.78
2019-04-29T10:20:44.554Z,12.75
2019-04-29T10:23:29.454Z,12.59
2019-04-29T10:26:00.212Z,12.59
2019-04-29T10:28:30.776Z,12.56
2019-04-29T10:31:00.435Z,12.49
2019-04-29T10:33:30.237Z,12.43
2019-04-29T10:36:01.392Z,12.41
2019-04-29T10:38:31.103Z,12.36
2019-04-29T10:41:14.286Z,12.34
2019-04-29T10:43:53.756Z,12.34
2019-04-29T10:46:32.207Z,12.36
2019-04-29T10:49:12.377Z,12.29
2019-04-29T10:51:43.101Z,12.26
2019-04-29T10:54:14.562Z,12.23
2019-04-29T10:56:44.121Z,12.24
2019-04-29T10:59:13.858Z,12.23
2019-04-29T11:02:16.308Z,12.23
2019-04-29T11:04:48.117Z,12.22
2019-04-29T11:07:28.735Z,12.21
2019-04-29T11:10:00.306Z,12.21
2019-04-29T11:12:31.648Z,12.23
2019-04-29T11:15:02.087Z,12.23
2019-04-29T11:17:35.068Z,12.23
2019-04-29T11:20:11.166Z,12.23
2019-04-29T11:22:40.080Z,12.20
2019-04-29T11:25:28.975Z,12.20
2019-04-29T11:28:00.143Z,12.18
2019-04-29T11:30:34.826Z,12.23
2019-04-29T11:33:11.802Z,12.21
2019-04-29T11:35:48.719Z,12.14
2019-04-29T11:38:21.992Z,12.07
2019-04-29T11:40:55.093Z,12.03
2019-04-29T11:43:27.878Z,12.08
2019-04-29T11:45:57.320Z,12.11
2019-04-29T11:48:28.329Z,12.13
2019-04-29T11:51:15.578Z,12.16
2019-04-29T11:53:45.452Z,12.18
2019-04-29T11:56:17.114Z,12.22
2019-04-29T11:58:48.484Z,12.24
2019-04-29T12:01:46.950Z,12.23
2019-04-29T12:04:33.441Z,12.25
2019-04-29T12:07:03.263Z,12.24
2019-04-29T12:09:35.149Z,12.16
2019-04-29T12:12:08.047Z,12.14
2019-04-29T12:14:45.107Z,12.14
2019-04-29T12:17:25.077Z,12.08
2019-04-29T12:20:02.664Z,12.02
2019-04-29T12:22:47.384Z,11.97
2019-04-29T12:25:06.427Z,11.95
2019-04-29T12:27:36.080Z,11.93
2019-04-29T12:30:09.289Z,11.88
2019-04-29T12:32:43.391Z,11.88
2019-04-29T12:35:30.387Z,11.88
2019-04-29T12:38:18.245Z,11.91
2019-04-29T12:41:05.298Z,11.93
2019-04-29T12:43:43.510Z,11.93
2019-04-29T12:46:28.141Z,11.91
2019-04-29T12:48:57.532Z,11.87
2019-04-29T12:51:27.194Z,11.85
2019-04-29T12:53:57.122Z,11.90
2019-04-29T12:56:34.185Z,11.93
2019-04-29T12:59:05.379Z,11.93
2019-04-29T13:01:58.296Z,11.97
2019-04-29T13:04:29.716Z,11.98
2019-04-29T13:07:00.867Z,12.01
2019-04-29T13:09:34.938Z,12.04
2019-04-29T13:12:17.785Z,12.03
2019-04-29T13:14:39.184Z,12.06
2019-04-29T13:17:30.456Z,12.06
2019-04-29T13:20:07.082Z,12.04
2019-04-29T13:22:37.538Z,12.04
2019-04-29T13:25:08.752Z,12.03
2019-04-29T13:27:39.537Z,12.05
2019-04-29T13:30:16.192Z,12.07
2019-04-29T13:32:45.009Z,12.07
2019-04-29T13:35:15.201Z,12.07
2019-04-29T13:37:47.903Z,12.06
2019-04-29T13:40:17.883Z,12.09
2019-04-29T13:42:50.769Z,12.11
2019-04-29T13:45:24.859Z,12.11
2019-04-29T13:48:10.588Z,12.12
2019-04-29T13:50:41.749Z,12.14
2019-04-29T13:53:16.680Z,12.15
2019-04-29T13:55:49.713Z,12.20
2019-04-29T13:58:22.131Z,12.17
2019-04-29T14:01:21.191Z,12.12
2019-04-29T14:03:47.174Z,12.12
2019-04-29T14:06:19.912Z,12.16
2019-04-29T14:08:49.393Z,12.18
2019-04-29T14:11:21.893Z,12.21
2019-04-29T14:13:50.122Z,12.19
2019-04-29T14:16:19.815Z,12.23
2019-04-29T14:18:50.021Z,12.29
2019-04-29T14:21:21.229Z,12.31
2019-04-29T14:23:52.166Z,12.33
2019-04-29T14:26:23.565Z,12.38
2019-04-29T14:28:56.190Z,12.42
2019-04-29T14:31:30.244Z,12.44
2019-04-29T14:34:18.400Z,12.43
2019-04-29T14:36:46.016Z,12.42
2019-04-29T14:39:18.933Z,12.44
2019-04-29T14:41:50.990Z,12.38
2019-04-29T14:44:33.172Z,12.36
2019-04-29T14:47:07.151Z,12.36
2019-04-29T14:49:41.041Z,12.38
2019-04-29T14:52:13.152Z,12.38
2019-04-29T14:54:43.623Z,12.37
2019-04-29T14:57:14.242Z,12.39
2019-04-29T14:59:43.789Z,12.37
2019-04-29T15:02:19.071Z,12.34
2019-04-29T15:04:50.260Z,12.26
2019-04-29T15:07:20.914Z,12.26
2019-04-29T15:09:58.187Z,12.31
2019-04-29T15:12:51.243Z,12.28
2019-04-29T15:15:21.449Z,12.27
2019-04-29T15:17:52.772Z,12.31
2019-04-29T15:20:30.337Z,12.32
2019-04-29T15:22:58.145Z,12.28
2019-04-29T15:25:28.906Z,12.22
2019-04-29T15:27:59.419Z,12.21
2019-04-29T15:30:31.821Z,12.23
2019-04-29T15:32:59.881Z,12.25
2019-04-29T15:35:30.832Z,12.29
2019-04-29T15:38:00.365Z,12.31
2019-04-29T15:40:29.739Z,12.26
2019-04-29T15:43:01.334Z,12.28
2019-04-29T15:45:32.330Z,12.30
2019-04-29T15:48:02.584Z,12.29
2019-04-29T15:50:32.569Z,12.21
2019-04-29T15:53:05.183Z,12.21
2019-04-29T15:55:34.918Z,12.23
2019-04-29T15:58:07.000Z,12.28
2019-04-29T16:08:36.364Z,12.52
2019-04-29T16:11:23.214Z,12.52
2019-04-29T16:14:08.374Z,12.55
2019-04-29T16:16:26.072Z,12.55
2019-04-29T16:19:07.319Z,12.57
2019-04-29T16:21:32.223Z,12.53
2019-04-29T16:23:57.981Z,12.56
2019-04-29T16:26:30.207Z,12.55
2019-04-29T16:28:59.772Z,12.56
2019-04-29T16:31:30.905Z,12.57
2019-04-29T16:34:00.686Z,12.58
2019-04-29T16:36:30.723Z,12.59
2019-04-29T16:39:00.429Z,12.58
2019-04-29T16:41:38.416Z,12.60
2019-04-29T16:44:34.171Z,12.57
2019-04-29T16:46:43.582Z,12.62
2019-04-29T16:49:14.087Z,12.65
2019-04-29T16:51:47.971Z,12.67
2019-04-29T16:54:19.826Z,12.66
2019-04-29T16:56:49.417Z,12.65
2019-04-29T16:59:21.360Z,12.60
2019-04-29T17:01:50.795Z,12.57
2019-04-29T17:04:21.937Z,12.54
2019-04-29T17:07:11.132Z,12.55
2019-04-29T17:09:41.455Z,12.55
2019-04-29T17:12:13.839Z,12.55
2019-04-29T17:15:02.766Z,12.55
2019-04-29T17:17:16.530Z,12.55
2019-04-29T17:19:47.083Z,12.56
2019-04-29T17:22:25.391Z,12.59
2019-04-29T17:24:50.118Z,12.55
2019-04-29T17:27:41.206Z,12.43
2019-04-29T17:30:10.919Z,12.43
2019-04-29T17:32:52.965Z,12.42
2019-04-29T17:35:13.887Z,12.34
2019-04-29T17:35:13.888Z,12.40
2019-04-29T17:35:19.092Z,12.46
2019-04-29T17:37:54.569Z,12.35
2019-04-29T17:40:25.458Z,12.30
2019-04-29T17:43:12.526Z,12.30
2019-04-29T17:45:49.211Z,12.29
2019-04-29T17:48:27.593Z,12.29
2019-04-29T17:50:58.687Z,12.31
2019-04-29T17:53:32.220Z,12.29
2019-04-29T17:56:05.891Z,12.29
2019-04-29T17:58:40.059Z,12.30
2019-04-29T18:01:15.775Z,12.27
2019-04-29T18:03:46.776Z,12.24
2019-04-29T18:06:24.203Z,12.23
2019-04-29T18:08:57.915Z,12.15
2019-04-29T18:11:27.840Z,12.12
2019-04-29T18:13:58.099Z,12.07
2019-04-29T18:16:29.311Z,12.04
2019-04-29T18:19:06.469Z,12.07
2019-04-29T18:21:47.844Z,12.02
2019-04-29T18:24:21.804Z,12.00
2019-04-29T18:26:55.994Z,11.98
2019-04-29T18:29:27.344Z,12.21
2019-04-29T18:31:56.721Z,12.37
2019-04-29T18:34:33.774Z,12.42
2019-04-29T18:37:01.820Z,12.38
2019-04-29T18:39:31.681Z,12.42
2019-04-29T18:42:03.091Z,12.46
2019-04-29T18:44:33.213Z,12.45
2019-04-29T18:47:05.325Z,12.47
2019-04-29T18:52:28.570Z,12.59
2019-04-29T18:55:00.709Z,12.58
2019-04-29T18:57:31.367Z,12.58
2019-04-29T19:00:04.997Z,12.55
2019-04-29T19:02:45.028Z,12.49
2019-04-29T19:05:09.746Z,12.38
2019-04-29T19:07:39.883Z,12.30
2019-04-29T19:10:14.070Z,12.27
2019-04-29T19:12:45.930Z,12.26
2019-04-29T19:15:18.409Z,12.22
2019-04-29T19:17:58.697Z,12.16
2019-04-29T19:20:19.289Z,12.09
2019-04-29T19:22:55.753Z,12.06
2019-04-29T19:25:22.711Z,12.03
2019-04-29T19:27:53.080Z,12.02
2019-04-29T19:30:27.037Z,12.00
2019-04-29T19:33:00.387Z,11.99
2019-04-29T19:35:29.536Z,11.96
2019-04-29T19:37:58.024Z,11.92
2019-04-29T19:40:30.657Z,11.96
2019-04-29T19:43:00.938Z,11.96
2019-04-29T19:45:31.864Z,11.95
2019-04-29T19:48:01.899Z,11.97
2019-04-29T19:50:31.294Z,11.94
2019-04-29T19:53:04.956Z,11.93
2019-04-29T19:55:41.771Z,11.92
2019-04-29T19:58:12.132Z,11.89
2019-04-29T20:00:41.961Z,11.90
2019-04-29T20:03:22.874Z,11.93
2019-04-29T20:05:49.483Z,11.95
2019-04-29T20:08:41.222Z,11.95
2019-04-29T20:10:53.915Z,11.96
2019-04-29T20:13:30.284Z,11.97
2019-04-29T20:16:10.142Z,11.96
2019-04-29T20:18:40.717Z,11.98
2019-04-29T20:21:24.651Z,11.97
2019-04-29T20:23:46.827Z,11.97
2019-04-29T20:26:23.645Z,11.93
2019-04-29T20:28:51.047Z,11.93
2019-04-29T20:31:22.536Z,11.97
2019-04-29T20:33:52.251Z,12.03
2019-04-29T20:36:38.453Z,11.98
2019-04-29T20:38:56.171Z,11.96
2019-04-29T20:41:40.364Z,11.96
2019-04-29T20:44:00.967Z,12.00
2019-04-29T20:46:41.029Z,12.02
2019-04-29T20:49:02.406Z,12.04
2019-04-29T20:51:48.645Z,12.06
2019-04-29T20:54:19.116Z,12.07
2019-04-29T20:56:47.461Z,12.04
2019-04-29T20:59:18.595Z,12.02
2019-04-29T21:01:51.234Z,12.02
2019-04-29T21:04:31.041Z,12.04
2019-04-29T21:07:01.821Z,12.03
2019-04-29T21:09:27.563Z,12.02
2019-04-29T21:11:58.588Z,12.05
2019-04-29T21:14:33.885Z,12.05
2019-04-29T21:17:02.237Z,11.98
2019-04-29T21:19:32.229Z,11.98
2019-04-29T21:22:01.612Z,12.02
2019-04-29T21:24:31.180Z,11.99
2019-04-29T21:27:05.439Z,11.99
2019-04-29T21:29:35.790Z,11.90
2019-04-29T21:32:05.964Z,11.90
2019-04-29T21:34:52.268Z,11.94
2019-04-29T21:37:35.760Z,11.94
2019-04-29T21:40:14.851Z,11.93
2019-04-29T21:42:42.997Z,11.85
2019-04-29T21:45:17.431Z,11.85
2019-04-29T21:47:53.032Z,11.87
2019-04-29T21:50:18.738Z,11.87
2019-04-29T21:52:48.214Z,11.88
2019-04-29T21:55:20.551Z,11.89
2019-04-29T21:57:49.357Z,11.90
2019-04-29T22:00:23.945Z,11.91
2019-04-29T22:02:52.118Z,11.93
2019-04-29T22:05:21.677Z,11.93
2019-04-29T22:07:51.317Z,11.96
2019-04-29T22:10:25.119Z,11.97
2019-04-29T22:12:58.313Z,11.99
2019-04-29T22:15:32.668Z,11.97
2019-04-29T22:18:01.688Z,11.94
2019-04-29T22:20:30.527Z,11.92
2019-04-29T22:23:08.305Z,11.94
2019-04-29T22:25:36.712Z,11.92
2019-04-29T22:28:10.782Z,11.95
2019-04-29T22:30:41.491Z,11.95
2019-04-29T22:33:11.422Z,11.85
2019-04-29T22:35:40.953Z,11.85
2019-04-29T22:38:12.649Z,11.83
2019-04-29T22:40:45.194Z,11.76
2019-04-29T22:43:16.828Z,11.70
2019-04-29T22:45:46.974Z,11.70
2019-04-29T22:48:19.809Z,11.70
2019-04-29T22:50:49.328Z,11.70
2019-04-29T22:53:18.720Z,11.66
2019-04-29T22:55:48.443Z,11.57
2019-04-29T22:58:19.755Z,11.57
2019-04-29T23:00:50.627Z,11.55
2019-04-29T23:03:21.097Z,11.45
2019-04-29T23:05:52.037Z,11.45
2019-04-29T23:08:25.171Z,11.46
2019-04-29T23:11:02.559Z,11.46
2019-04-29T23:13:31.210Z,11.41
2019-04-29T23:16:02.217Z,11.41
2019-04-29T23:18:40.951Z,11.36
2019-04-29T23:21:21.412Z,11.36
2019-04-29T23:24:00.111Z,11.40
2019-04-29T23:26:34.837Z,11.36
2019-04-29T23:29:03.596Z,11.35
2019-04-29T23:31:35.133Z,11.34
2019-04-29T23:34:05.777Z,11.32
2019-04-29T23:36:37.088Z,11.30
2019-04-29T23:39:06.617Z,11.35
2019-04-29T23:41:39.246Z,11.35
2019-04-29T23:44:09.036Z,11.35
2019-04-29T23:46:38.418Z,11.27
2019-04-29T23:49:09.449Z,11.27
2019-04-29T23:51:39.015Z,11.30
2019-04-29T23:54:08.641Z,11.25
2019-04-29T23:56:42.755Z,11.17
2019-04-29T23:59:18.215Z,11.20
